Time;durP1;ratioP1;P1;durP2;ratioP2;P2;SDS_P1;SDS_P2;PMS_P1;PMS_P2;Temp;Humidity;BMP_temperature;BMP_pressure;BME280_temperature;BME280_humidity;BME280_pressure;Samples;Min_cycle;Max_cycle;Signal;HPM_P1;HPM_P2
2022/01/13 00:02:32;;;;;;;114.60;46.10;;;;;;;-3.40;77.88;100430.70;108230;1274;22576;-72
2022/01/13 00:04:59;;;;;;;123.00;46.40;;;;;;;-3.40;77.93;100425.07;108222;1274;23199;-71
2022/01/13 00:07:26;;;;;;;120.10;46.70;;;;;;;-3.38;77.86;100420.84;108218;1274;22597;-73
2022/01/13 00:09:53;;;;;;;130.30;49.90;;;;;;;-3.38;77.35;100414.54;108216;1274;25273;-72
2022/01/13 00:12:21;;;;;;;139.60;55.90;;;;;;;-3.30;77.54;100415.20;108211;1274;22733;-71
2022/01/13 00:15:19;;;;;;;117.00;48.80;;;;;;;-3.27;77.68;100422.23;108242;1274;22567;-71
2022/01/13 00:20:32;;;;;;;;;;;;;;;-3.22;78.62;100428.30;108235;1274;22688;-71
2022/01/13 00:25:46;;;;;;;118.80;44.60;;;;;;;-3.21;78.36;100427.64;108223;1274;22551;-72
2022/01/13 00:28:20;;;;;;;108.00;44.30;;;;;;;-3.21;78.01;100431.55;108191;1274;22652;-72
2022/01/13 00:30:51;;;;;;;114.70;48.80;;;;;;;-3.16;78.16;100441.39;108181;1274;22601;-72
2022/01/13 00:33:23;;;;;;;104.80;45.70;;;;;;;-3.12;78.48;100447.58;108195;1274;22563;-71
2022/01/13 00:35:52;;;;;;;103.30;41.30;;;;;;;-3.10;79.00;100446.42;108206;1274;25143;-71
2022/01/13 00:38:19;;;;;;;107.90;44.90;;;;;;;-3.08;79.12;100446.63;108212;1274;22623;-71
2022/01/13 00:40:46;;;;;;;107.50;44.20;;;;;;;-3.08;79.13;100445.61;108223;1274;22547;-71
2022/01/13 00:43:13;;;;;;;107.40;43.30;;;;;;;-3.07;79.06;100445.80;108216;1274;22566;-71
2022/01/13 00:45:40;;;;;;;118.50;47.00;;;;;;;-3.05;78.79;100445.66;108199;1274;24371;-73
2022/01/13 00:48:07;;;;;;;108.10;46.00;;;;;;;-3.00;78.58;100451.73;108192;1274;25241;-72
2022/01/13 00:50:34;;;;;;;114.50;45.80;;;;;;;-2.95;79.19;100458.45;108194;1274;22557;-71
2022/01/13 00:53:01;;;;;;;103.10;39.40;;;;;;;-2.93;79.54;100465.14;108198;1273;22563;-72
2022/01/13 00:55:44;;;;;;;114.40;44.30;;;;;;;-2.92;79.74;100469.77;108219;1274;22559;-71
2022/01/13 00:58:12;;;;;;;111.60;44.20;;;;;;;-2.90;79.58;100475.27;108197;1274;22573;-73
2022/01/13 01:00:41;;;;;;;111.90;45.50;;;;;;;-2.89;79.41;100474.79;108217;1274;22540;-73
2022/01/13 01:03:09;;;;;;;117.50;47.10;;;;;;;-2.86;79.33;100486.07;108201;1274;23384;-71
2022/01/13 01:05:37;;;;;;;120.70;48.40;;;;;;;-2.79;79.40;100490.47;108208;1274;25662;-71
2022/01/13 01:08:06;;;;;;;118.60;47.90;;;;;;;-2.75;79.64;100490.53;108214;1274;22559;-71
2022/01/13 01:10:33;;;;;;;108.10;41.80;;;;;;;-2.71;80.21;100492.16;108443;1274;22617;-72
2022/01/13 01:13:09;;;;;;;106.30;42.90;;;;;;;-2.71;80.53;100496.07;108214;1274;23059;-71
2022/01/13 01:15:38;;;;;;;109.50;43.20;;;;;;;-2.72;80.50;100498.11;107903;1274;401842;-71
2022/01/13 01:18:17;;;;;;;111.00;42.40;;;;;;;-2.72;80.17;100500.83;108208;1274;22582;-71
2022/01/13 01:21:02;;;;;;;119.60;45.70;;;;;;;-2.73;79.99;100503.71;108206;1274;22560;-72
2022/01/13 01:23:34;;;;;;;104.20;43.80;;;;;;;-2.68;80.13;100503.64;108194;1274;22554;-71
2022/01/13 01:26:08;;;;;;;111.10;44.30;;;;;;;-2.65;80.20;100507.25;108185;1274;22583;-71
2022/01/13 01:28:45;;;;;;;100.30;40.00;;;;;;;-2.63;80.61;100512.08;108243;1274;22544;-70
2022/01/13 01:31:13;;;;;;;107.90;43.00;;;;;;;-2.61;81.21;100515.85;108205;1274;22570;-71
2022/01/13 01:33:48;;;;;;;97.30;39.30;;;;;;;-2.61;80.78;100509.05;108208;1274;22563;-73
2022/01/13 01:36:16;;;;;;;91.60;38.40;;;;;;;-2.59;80.73;100486.72;108197;1274;25287;-73
2022/01/13 01:38:47;;;;;;;107.60;42.30;;;;;;;-2.58;80.30;100464.73;108235;1274;22585;-73
2022/01/13 01:41:16;;;;;;;113.10;45.10;;;;;;;-2.53;80.44;100449.98;108244;1274;22719;-74
2022/01/13 01:43:43;;;;;;;114.70;42.80;;;;;;;-2.49;80.65;100453.45;108221;1274;22557;-73
2022/01/13 01:46:10;;;;;;;97.10;39.20;;;;;;;-2.45;81.33;100468.70;108205;1274;22654;-72
2022/01/13 01:48:37;;;;;;;87.40;37.40;;;;;;;-2.47;81.54;100470.37;108242;1274;22665;-75
2022/01/13 01:51:04;;;;;;;113.30;42.00;;;;;;;-2.48;81.32;100466.25;108421;1274;25476;-73
2022/01/13 01:53:31;;;;;;;120.50;45.00;;;;;;;-2.48;80.92;100464.03;108432;1274;22582;-73
2022/01/13 01:55:59;;;;;;;114.60;44.30;;;;;;;-2.47;81.13;100459.29;108418;1274;22563;-74
2022/01/13 01:58:27;;;;;;;126.90;44.40;;;;;;;-2.45;81.00;100434.59;108418;1274;22566;-76
2022/01/13 02:00:55;;;;;;;115.60;43.70;;;;;;;-2.42;80.91;100404.27;108477;1274;22566;-74
2022/01/13 02:03:24;;;;;;;115.10;40.40;;;;;;;-2.40;81.40;100410.93;108449;1274;22565;-72
2022/01/13 02:05:53;;;;;;;103.70;39.60;;;;;;;-2.41;81.64;100416.38;108466;1274;22540;-73
2022/01/13 02:08:19;;;;;;;116.00;44.10;;;;;;;-2.41;81.64;100414.16;108472;1274;24199;-69
2022/01/13 02:10:47;;;;;;;115.90;40.80;;;;;;;-2.39;81.41;100420.00;108426;1274;22646;-71
2022/01/13 02:13:21;;;;;;;125.40;44.00;;;;;;;-2.37;81.10;100432.31;108458;1274;22867;-71
2022/01/13 02:16:00;;;;;;;124.30;47.20;;;;;;;-2.31;81.09;100452.38;108505;1274;22713;-72
2022/01/13 02:18:32;;;;;;;111.50;44.30;;;;;;;-2.26;81.47;100452.11;108523;1274;22549;-72
2022/01/13 02:21:01;;;;;;;143.60;49.70;;;;;;;-2.22;81.76;100450.63;108441;1274;25631;-71
2022/01/13 02:23:33;;;;;;;111.30;43.30;;;;;;;-2.20;81.93;100452.36;108446;1274;22576;-72
2022/01/13 02:26:01;;;;;;;112.80;40.80;;;;;;;-2.19;81.94;100456.48;108437;1274;22600;-72
2022/01/13 02:28:28;;;;;;;100.20;39.50;;;;;;;-2.20;81.79;100462.61;108438;1274;22608;-73
2022/01/13 02:30:56;;;;;;;120.30;42.40;;;;;;;-2.17;81.47;100459.09;108426;1274;22597;-72
2022/01/13 02:33:23;;;;;;;139.20;47.70;;;;;;;-2.12;81.44;100454.88;108434;1274;22664;-72
2022/01/13 02:35:50;;;;;;;134.50;47.90;;;;;;;-2.08;81.69;100442.48;108432;1274;22609;-75
2022/01/13 02:38:17;;;;;;;102.80;38.30;;;;;;;-2.05;82.11;100432.27;108451;1274;22578;-73
2022/01/13 02:40:44;;;;;;;108.10;40.30;;;;;;;-2.04;82.52;100421.88;108434;1271;22573;-74
2022/01/13 02:43:11;;;;;;;101.40;40.50;;;;;;;-2.04;82.56;100409.07;108437;1274;24319;-75
2022/01/13 02:45:51;;;;;;;105.00;39.80;;;;;;;-2.03;82.21;100401.23;108453;1274;22637;-75
2022/01/13 02:50:54;;;;;;;140.70;43.60;;;;;;;-2.00;82.13;100396.52;108465;1274;22559;-71
2022/01/13 02:53:22;;;;;;;120.80;44.70;;;;;;;-1.96;82.36;100400.13;108471;1274;22569;-72
2022/01/13 02:55:51;;;;;;;103.10;38.40;;;;;;;-1.91;82.66;100407.02;108424;1274;22573;-72
2022/01/13 02:58:18;;;;;;;84.90;35.60;;;;;;;-1.91;83.11;100405.33;108460;1274;22601;-72
2022/01/13 03:00:45;;;;;;;88.10;35.70;;;;;;;-1.92;82.82;100419.31;108426;1274;22570;-72
2022/01/13 03:03:12;;;;;;;87.80;34.80;;;;;;;-1.91;82.68;100423.09;108425;1274;22581;-76
2022/01/13 03:05:40;;;;;;;103.90;37.10;;;;;;;-1.88;82.33;100422.45;108417;1274;22635;-72
2022/01/13 03:08:08;;;;;;;111.00;40.50;;;;;;;-1.81;82.41;100428.17;108436;1274;22579;-71
2022/01/13 03:10:35;;;;;;;97.40;37.90;;;;;;;-1.77;82.54;100438.28;108459;1274;22610;-72
2022/01/13 03:13:04;;;;;;;84.40;34.50;;;;;;;-1.73;83.14;100438.01;108440;1274;22554;-72
2022/01/13 03:15:31;;;;;;;81.50;34.30;;;;;;;-1.73;83.43;100432.89;108319;1274;23096;-72
2022/01/13 03:17:58;;;;;;;95.60;34.30;;;;;;;-1.73;83.36;100429.29;108247;1274;24370;-71
2022/01/13 03:20:25;;;;;;;85.80;35.20;;;;;;;-1.72;83.25;100419.58;108223;1274;22550;-71
2022/01/13 03:22:52;;;;;;;101.40;37.80;;;;;;;-1.70;83.07;100415.84;108241;1274;22600;-71
2022/01/13 03:25:24;;;;;;;103.50;36.70;;;;;;;-1.64;83.10;100408.91;108227;1274;24380;-71
2022/01/13 03:27:56;;;;;;;99.10;36.40;;;;;;;-1.59;83.32;100409.65;108193;1274;22553;-71
2022/01/13 03:30:24;;;;;;;91.70;34.10;;;;;;;-1.57;83.46;100408.66;108210;1274;22551;-71
2022/01/13 03:32:51;;;;;;;74.90;32.90;;;;;;;-1.55;83.91;100400.65;108293;1274;23070;-71
2022/01/13 03:35:18;;;;;;;79.90;30.40;;;;;;;-1.54;84.00;100402.88;108182;1274;25423;-71
2022/01/13 03:37:45;;;;;;;83.60;33.00;;;;;;;-1.52;83.83;100403.08;108214;1274;25385;-71
2022/01/13 03:40:13;;;;;;;91.70;33.60;;;;;;;-1.52;83.67;100397.93;108216;1274;22554;-71
2022/01/13 03:42:40;;;;;;;90.30;35.30;;;;;;;-1.49;83.52;100388.75;108327;1274;22559;-71
2022/01/13 03:45:08;;;;;;;94.40;34.50;;;;;;;-1.43;83.70;100393.95;108206;1274;22550;-71
2022/01/13 03:47:34;;;;;;;92.20;33.40;;;;;;;-1.41;84.21;100393.28;108229;1274;22593;-72
2022/01/13 03:50:02;;;;;;;77.60;33.20;;;;;;;-1.38;84.25;100396.74;108220;1274;24462;-72
2022/01/13 03:52:29;;;;;;;79.50;31.10;;;;;;;-1.37;84.27;100399.14;108181;1274;22618;-71
2022/01/13 03:55:34;;;;;;;73.50;29.90;;;;;;;-1.36;84.32;100396.94;108206;1274;24306;-71
2022/01/13 03:58:22;;;;;;;87.60;33.20;;;;;;;-1.33;83.82;100389.60;107796;1282;22796;-75
2022/01/13 04:01:27;;;;;;;93.10;36.20;;;;;;;-1.27;83.77;100388.32;107853;1282;22598;-71
2022/01/13 04:03:54;;;;;;;81.30;33.20;;;;;;;-1.23;84.26;100392.96;107741;1282;22726;-71
2022/01/13 04:06:20;;;;;;;68.10;29.80;;;;;;;-1.21;84.40;100391.10;107792;1282;22615;-72
2022/01/13 04:08:49;;;;;;;77.60;31.00;;;;;;;-1.22;84.40;100390.23;107785;1282;22578;-72
2022/01/13 04:11:25;;;;;;;76.60;30.70;;;;;;;-1.21;84.39;100384.95;107682;1281;24799;-72
2022/01/13 04:16:27;;;;;;;74.90;30.10;;;;;;;-1.23;84.07;100379.62;107773;1282;23624;-74
2022/01/13 04:19:01;;;;;;;80.50;32.10;;;;;;;-1.17;83.85;100387.73;108107;1282;22560;-72
2022/01/13 04:21:28;;;;;;;71.70;29.60;;;;;;;-1.12;84.12;100390.34;107777;1282;22542;-73
2022/01/13 04:23:57;;;;;;;66.20;27.00;;;;;;;-1.07;84.47;100390.20;107845;1282;25718;-73
2022/01/13 04:26:28;;;;;;;62.90;26.40;;;;;;;-1.06;84.76;100393.46;107785;1282;22754;-73
2022/01/13 04:29:05;;;;;;;61.60;26.20;;;;;;;-1.08;84.84;100393.98;107750;1282;22575;-72
2022/01/13 04:31:32;;;;;;;52.50;23.60;;;;;;;-1.07;84.66;100389.36;107794;1282;25504;-72
2022/01/13 04:33:59;;;;;;;46.50;19.90;;;;;;;-1.07;84.45;100387.30;107799;1282;22599;-72
2022/01/13 04:36:27;;;;;;;61.00;26.50;;;;;;;-1.07;84.26;100391.42;108222;1274;22570;-73
2022/01/13 04:38:53;;;;;;;69.80;28.70;;;;;;;-1.02;84.05;100391.47;108189;1274;22571;-72
2022/01/13 04:41:34;;;;;;;66.00;26.80;;;;;;;-0.98;84.33;100384.48;108192;1274;22542;-71
2022/01/13 04:44:05;;;;;;;52.40;24.50;;;;;;;-0.95;84.49;100386.39;108206;1274;22561;-73
2022/01/13 04:46:32;;;;;;;48.20;20.30;;;;;;;-0.92;84.97;100388.48;108218;1274;22573;-73
2022/01/13 04:49:01;;;;;;;54.20;23.00;;;;;;;-0.92;84.97;100384.54;108216;1274;25395;-72
2022/01/13 04:51:28;;;;;;;55.30;24.00;;;;;;;-0.93;84.84;100376.66;108184;1274;25254;-72
2022/01/13 04:53:56;;;;;;;62.30;25.10;;;;;;;-0.93;84.79;100374.61;108211;1274;22687;-72
2022/01/13 04:56:44;;;;;;;63.20;24.60;;;;;;;-0.92;84.46;100372.73;108208;1274;22584;-71
2022/01/13 04:59:12;;;;;;;58.80;25.60;;;;;;;-0.86;84.27;100378.77;108216;1274;25391;-71
2022/01/13 05:01:39;;;;;;;64.60;26.50;;;;;;;-0.83;84.64;100379.84;108208;1274;22588;-75
2022/01/13 05:04:07;;;;;;;65.90;28.70;;;;;;;-0.79;84.86;100386.19;108198;1274;22569;-73
2022/01/13 05:06:34;;;;;;;73.30;31.90;;;;;;;-0.82;85.03;100392.34;108261;1274;22583;-74
2022/01/13 05:09:02;;;;;;;39.80;21.00;;;;;;;-0.81;85.18;100392.52;108232;1274;22630;-73
2022/01/13 05:11:29;;;;;;;44.50;22.40;;;;;;;-0.82;84.83;100399.35;108236;1274;22580;-74
2022/01/13 05:13:56;;;;;;;58.60;26.60;;;;;;;-0.82;84.72;100401.39;108203;1274;22575;-73
2022/01/13 05:16:34;;;;;;;60.10;29.40;;;;;;;-0.76;84.50;100396.14;108206;1274;22550;-72
2022/01/13 05:24:17;;;;;;;50.90;23.00;;;;;;;-0.70;84.73;100387.11;108255;1274;25519;-72
2022/01/13 05:26:43;;;;;;;46.30;22.90;;;;;;;-0.71;84.57;100384.71;108212;1274;22563;-73
2022/01/13 05:29:17;;;;;;;47.80;20.90;;;;;;;-0.71;84.36;100383.00;108210;1274;22548;-73
2022/01/13 05:31:44;;;;;;;60.10;25.50;;;;;;;-0.70;84.28;100391.73;108226;1274;23141;-74
2022/01/13 05:34:10;;;;;;;46.20;22.30;;;;;;;-0.68;84.03;100388.33;108221;1274;22582;-71
2022/01/13 05:36:37;;;;;;;49.50;22.70;;;;;;;-0.65;84.15;100392.98;108237;1274;25321;-72
2022/01/13 05:39:05;;;;;;;44.30;20.20;;;;;;;-0.61;84.68;100390.27;108200;1274;22562;-71
2022/01/13 05:41:33;;;;;;;45.80;21.20;;;;;;;-0.65;84.60;100384.94;108213;1274;22630;-71
2022/01/13 05:44:00;;;;;;;53.90;20.50;;;;;;;-0.66;84.56;100373.64;108228;1274;22549;-71
2022/01/13 05:46:27;;;;;;;49.20;23.60;;;;;;;-0.68;84.30;100368.30;108230;1274;22776;-71
2022/01/13 05:48:54;;;;;;;53.90;25.70;;;;;;;-0.70;84.18;100365.73;108210;1274;22556;-71
2022/01/13 05:51:21;;;;;;;55.20;27.30;;;;;;;-0.67;84.04;100364.39;108199;1274;22685;-71
2022/01/13 05:53:48;;;;;;;57.10;26.40;;;;;;;-0.66;84.09;100361.32;108195;1274;22604;-72
2022/01/13 05:56:16;;;;;;;51.10;25.10;;;;;;;-0.66;84.36;100365.77;108213;1274;22584;-71
2022/01/13 05:58:43;;;;;;;49.60;25.10;;;;;;;-0.70;84.48;100364.19;108200;1274;25241;-71
2022/01/13 06:01:10;;;;;;;50.20;25.90;;;;;;;-0.72;84.34;100362.80;108250;1274;22557;-73
2022/01/13 06:03:37;;;;;;;52.30;26.40;;;;;;;-0.76;84.11;100353.54;108218;1274;22579;-73
2022/01/13 06:06:04;;;;;;;56.20;27.70;;;;;;;-0.78;83.76;100345.30;108234;1274;22533;-73
2022/01/13 06:08:31;;;;;;;67.80;30.20;;;;;;;-0.79;83.69;100340.33;108198;1274;22603;-74
2022/01/13 06:10:57;;;;;;;56.00;27.30;;;;;;;-0.78;83.93;100336.77;108227;1274;25344;-74
2022/01/13 06:13:24;;;;;;;48.80;23.20;;;;;;;-0.77;84.18;100341.20;108228;1274;22585;-73
2022/01/13 06:15:51;;;;;;;47.80;23.40;;;;;;;-0.80;84.22;100339.64;108231;1274;26318;-71
2022/01/13 06:18:19;;;;;;;51.70;25.30;;;;;;;-0.80;84.18;100344.43;108226;1274;25333;-72
2022/01/13 06:20:45;;;;;;;47.70;24.00;;;;;;;-0.81;84.00;100352.48;108261;1274;22615;-72
2022/01/13 06:23:15;;;;;;;53.70;24.60;;;;;;;-0.82;83.81;100355.72;108200;1274;22608;-73
2022/01/13 06:25:41;;;;;;;64.80;29.20;;;;;;;-0.82;83.66;100366.84;108220;1274;25289;-72
2022/01/13 06:28:08;;;;;;;92.80;37.40;;;;;;;-0.80;83.56;100372.33;108218;1274;22582;-73
2022/01/13 06:30:35;;;;;;;94.00;38.10;;;;;;;-0.78;83.73;100375.08;108203;1274;22579;-72
2022/01/13 06:33:04;;;;;;;90.90;36.20;;;;;;;-0.77;83.76;100378.16;108213;1274;22577;-72
2022/01/13 06:35:31;;;;;;;92.50;38.90;;;;;;;-0.79;84.14;100367.02;108201;1274;23120;-71
2022/01/13 06:37:58;;;;;;;82.20;35.40;;;;;;;-0.84;83.96;100371.78;108246;1274;22528;-72
2022/01/13 06:40:25;;;;;;;89.10;36.80;;;;;;;-0.91;83.74;100373.26;108247;1274;22557;-72
2022/01/13 06:42:52;;;;;;;80.70;37.10;;;;;;;-0.99;83.54;100374.05;108231;1274;22549;-72
2022/01/13 06:45:19;;;;;;;90.50;40.20;;;;;;;-1.06;83.37;100379.95;108217;1274;24288;-72
2022/01/13 06:47:46;;;;;;;90.50;40.60;;;;;;;-1.08;83.39;100378.93;108174;1274;22726;-72
2022/01/13 06:50:13;;;;;;;84.70;40.30;;;;;;;-1.08;83.49;100374.47;108199;1274;22609;-73
2022/01/13 06:52:40;;;;;;;87.50;42.60;;;;;;;-1.13;83.83;100380.58;108216;1274;22557;-71
2022/01/13 06:55:07;;;;;;;92.80;41.50;;;;;;;-1.18;84.06;100383.10;108234;1274;22620;-72
2022/01/13 06:57:34;;;;;;;100.50;45.40;;;;;;;-1.24;83.97;100385.25;108272;1274;23214;-75
2022/01/13 07:00:03;;;;;;;148.00;61.30;;;;;;;-1.28;83.87;100391.89;108198;1274;22568;-73
2022/01/13 07:02:31;;;;;;;105.60;46.20;;;;;;;-1.31;83.45;100399.55;108738;1274;22553;-72
2022/01/13 07:04:58;;;;;;;126.00;50.10;;;;;;;-1.33;83.38;100402.94;108239;1274;22597;-71
2022/01/13 07:07:25;;;;;;;141.70;52.80;;;;;;;-1.30;83.28;100404.35;108217;1274;22726;-72
2022/01/13 07:09:52;;;;;;;131.00;50.60;;;;;;;-1.27;83.35;100408.84;108222;1271;24434;-72
2022/01/13 07:12:19;;;;;;;95.40;42.10;;;;;;;-1.23;83.70;100414.33;108192;1274;24304;-72
2022/01/13 07:14:46;;;;;;;110.90;47.20;;;;;;;-1.27;83.83;100412.09;108207;1274;22606;-72
2022/01/13 07:17:13;;;;;;;101.30;44.70;;;;;;;-1.27;83.70;100412.42;108182;1274;25308;-72
2022/01/13 07:19:40;;;;;;;103.10;43.20;;;;;;;-1.29;83.53;100409.66;108364;1274;22567;-71
2022/01/13 07:22:09;;;;;;;108.90;43.00;;;;;;;-1.28;83.41;100412.40;108428;1274;22628;-71
2022/01/13 07:24:36;;;;;;;120.00;48.90;;;;;;;-1.22;83.08;100414.52;108407;1274;22562;-71
2022/01/13 07:27:03;;;;;;;111.80;46.30;;;;;;;-1.19;83.26;100411.81;108420;1274;22689;-72
2022/01/13 07:29:30;;;;;;;87.20;39.00;;;;;;;-1.20;83.52;100401.89;108413;1274;22576;-73
2022/01/13 07:31:57;;;;;;;87.20;37.70;;;;;;;-1.26;83.53;100398.08;108445;1274;22591;-74
2022/01/13 07:34:24;;;;;;;94.60;41.20;;;;;;;-1.29;83.45;100387.95;108435;1274;22569;-73
2022/01/13 07:36:51;;;;;;;80.90;34.90;;;;;;;-1.32;83.29;100382.61;108435;1274;24218;-74
2022/01/13 07:39:18;;;;;;;84.70;37.80;;;;;;;-1.33;82.91;100380.71;108445;1274;22573;-73
2022/01/13 07:41:45;;;;;;;101.70;43.00;;;;;;;-1.32;82.81;100378.34;108437;1274;22623;-74
2022/01/13 07:44:12;;;;;;;101.90;46.60;;;;;;;-1.29;83.04;100367.60;108441;1274;22586;-74
2022/01/13 07:46:39;;;;;;;111.50;47.60;;;;;;;-1.27;83.27;100354.11;108435;1274;25142;-74
2022/01/13 07:49:05;;;;;;;97.10;42.10;;;;;;;-1.25;83.63;100354.98;108443;1274;25417;-71
2022/01/13 07:51:32;;;;;;;102.50;44.90;;;;;;;-1.26;83.73;100350.20;108439;1274;22558;-71
2022/01/13 07:54:01;;;;;;;90.20;38.60;;;;;;;-1.28;83.34;100341.30;108435;1274;22803;-70
2022/01/13 07:56:28;;;;;;;101.10;45.00;;;;;;;-1.30;83.03;100331.01;108465;1274;22564;-70
2022/01/13 07:58:56;;;;;;;79.20;35.00;;;;;;;-1.36;82.97;100324.48;108261;1275;22546;-71
2022/01/13 08:01:23;;;;;;;96.70;43.20;;;;;;;-1.38;82.79;100324.79;108207;1274;22580;-71
2022/01/13 08:03:50;;;;;;;83.90;38.50;;;;;;;-1.33;82.73;100314.39;108200;1274;22546;-73
2022/01/13 08:06:19;;;;;;;92.70;38.40;;;;;;;-1.32;82.85;100306.21;108180;1274;22577;-73
2022/01/13 08:08:46;;;;;;;85.30;37.70;;;;;;;-1.30;83.06;100310.00;108214;1275;22625;-73
2022/01/13 08:11:13;;;;;;;75.70;35.10;;;;;;;-1.31;83.22;100317.84;108217;1274;22540;-72
2022/01/13 08:13:40;;;;;;;64.80;28.30;;;;;;;-1.29;83.29;100318.02;108223;1274;22626;-71
2022/01/13 08:16:09;;;;;;;78.00;34.30;;;;;;;-1.24;82.65;100324.40;108208;1274;22668;-74
2022/01/13 08:21:24;;;;;;;83.00;33.80;;;;;;;-1.21;82.46;100320.84;108238;1274;22550;-71
2022/01/13 08:23:51;;;;;;;90.00;37.50;;;;;;;-1.12;82.44;100327.59;108303;1274;25510;-71
2022/01/13 08:26:20;;;;;;;77.70;35.80;;;;;;;-1.06;82.55;100334.98;108214;1274;22540;-71
2022/01/13 08:28:47;;;;;;;76.20;35.10;;;;;;;-1.02;82.85;100339.81;108209;1274;22583;-71
2022/01/13 08:31:14;;;;;;;71.10;31.60;;;;;;;-1.00;82.84;100333.85;108232;1274;22629;-71
2022/01/13 08:33:41;;;;;;;78.00;34.90;;;;;;;-0.95;82.35;100330.46;108199;1274;25560;-71
2022/01/13 08:36:08;;;;;;;60.40;26.90;;;;;;;-0.96;82.02;100336.44;108210;1271;22652;-72
2022/01/13 08:38:35;;;;;;;68.80;31.80;;;;;;;-0.94;81.64;100344.66;108238;1274;22598;-73
2022/01/13 08:41:02;;;;;;;82.20;34.40;;;;;;;-0.93;81.73;100350.50;108218;1274;22553;-73
2022/01/13 08:43:29;;;;;;;82.40;36.70;;;;;;;-0.88;81.71;100341.46;108235;1274;24334;-72
2022/01/13 08:45:57;;;;;;;75.90;31.80;;;;;;;-0.80;82.14;100337.92;108205;1274;22557;-72
2022/01/13 08:48:24;;;;;;;75.20;33.90;;;;;;;-0.75;82.23;100339.86;108217;1274;22555;-72
2022/01/13 08:50:52;;;;;;;52.20;25.50;;;;;;;-0.69;81.80;100348.96;108272;1274;22590;-72
2022/01/13 08:53:19;;;;;;;63.50;28.90;;;;;;;-0.67;81.34;100344.70;108228;1274;25572;-72
2022/01/13 08:55:46;;;;;;;59.00;27.60;;;;;;;-0.67;81.06;100343.67;108199;1274;22557;-74
2022/01/13 08:58:13;;;;;;;63.30;29.10;;;;;;;-0.67;80.87;100348.30;108207;1274;22538;-72
2022/01/13 09:00:41;;;;;;;66.40;29.80;;;;;;;-0.65;80.67;100349.35;108244;1274;22567;-74
2022/01/13 09:03:08;;;;;;;65.70;30.60;;;;;;;-0.62;80.57;100344.90;108250;1274;22555;-73
2022/01/13 09:05:37;;;;;;;63.50;29.50;;;;;;;-0.59;81.00;100339.80;108248;1274;22556;-73
2022/01/13 09:08:07;;;;;;;63.00;28.80;;;;;;;-0.57;81.25;100332.13;108200;1274;22558;-71
2022/01/13 09:10:34;;;;;;;62.80;28.50;;;;;;;-0.57;81.25;100330.41;108218;1274;22852;-73
2022/01/13 09:13:02;;;;;;;63.30;28.50;;;;;;;-0.55;80.92;100324.10;108248;1274;22547;-74
2022/01/13 09:15:34;;;;;;;52.20;23.10;;;;;;;-0.53;80.63;100324.79;108234;1274;23200;-75
2022/01/13 09:18:09;;;;;;;57.90;28.20;;;;;;;-0.54;80.51;100324.95;108241;1274;22572;-75
2022/01/13 09:20:39;;;;;;;55.30;25.10;;;;;;;-0.51;80.02;100317.77;108254;1274;22560;-73
2022/01/13 09:23:07;;;;;;;57.50;26.70;;;;;;;-0.46;80.05;100315.93;108252;1274;22579;-74
2022/01/13 09:25:35;;;;;;;59.20;27.10;;;;;;;-0.40;80.39;100300.55;108785;1274;23965;-74
2022/01/13 09:28:05;;;;;;;52.40;24.60;;;;;;;-0.34;80.69;100294.08;108265;1274;25255;-75
2022/01/13 09:30:33;;;;;;;53.30;24.40;;;;;;;-0.32;80.15;100296.83;108208;1274;22589;-73
2022/01/13 09:33:00;;;;;;;56.30;26.80;;;;;;;-0.37;79.79;100303.14;108237;1274;22583;-73
2022/01/13 09:35:28;;;;;;;56.90;26.40;;;;;;;-0.38;79.50;100304.52;108245;1274;22571;-72
2022/01/13 09:37:55;;;;;;;56.90;26.10;;;;;;;-0.40;79.42;100300.40;108229;1274;22680;-72
2022/01/13 09:40:22;;;;;;;56.00;27.30;;;;;;;-0.43;79.27;100291.30;108242;1274;22547;-74
2022/01/13 09:42:49;;;;;;;70.00;33.30;;;;;;;-0.42;79.18;100287.19;108253;1274;22574;-71
2022/01/13 09:45:17;;;;;;;57.20;27.20;;;;;;;-0.39;79.23;100288.59;108249;1274;22590;-72
2022/01/13 09:47:46;;;;;;;50.90;25.80;;;;;;;-0.35;79.56;100287.06;108237;1274;22547;-73
2022/01/13 09:50:16;;;;;;;59.40;27.00;;;;;;;-0.37;79.70;100293.90;108249;1274;22573;-73
2022/01/13 09:52:44;;;;;;;56.80;27.70;;;;;;;-0.39;79.81;100300.57;108265;1274;22626;-73
2022/01/13 09:55:14;;;;;;;60.00;29.30;;;;;;;-0.37;79.38;100296.48;108253;1274;22576;-73
2022/01/13 09:57:47;;;;;;;53.90;27.00;;;;;;;-0.34;79.29;100285.01;108326;1274;22570;-72
2022/01/13 10:00:21;;;;;;;63.20;28.60;;;;;;;-0.27;79.07;100276.99;108264;1274;23001;-73
2022/01/13 10:02:48;;;;;;;64.70;28.10;;;;;;;-0.19;78.89;100273.44;108245;1274;22553;-72
2022/01/13 10:05:17;;;;;;;61.80;29.40;;;;;;;-0.14;78.87;100277.73;108278;1274;23500;-74
2022/01/13 10:07:46;;;;;;;79.70;41.80;;;;;;;-0.05;78.85;100279.83;108251;1274;25427;-74
2022/01/13 10:10:16;;;;;;;63.90;30.10;;;;;;;0.08;78.60;100270.64;108206;1274;24895;-73
2022/01/13 10:12:48;;;;;;;67.00;32.60;;;;;;;0.21;79.05;100269.46;108569;1274;22588;-73
2022/01/13 10:18:05;;;;;;;63.50;29.10;;;;;;;0.42;79.12;100257.67;108252;1274;22580;-72
2022/01/13 10:20:33;;;;;;;57.80;28.20;;;;;;;0.50;78.61;100255.29;108210;1274;22561;-76
2022/01/13 10:23:11;;;;;;;64.30;30.00;;;;;;;0.61;78.16;100247.75;108691;1274;25252;-72
2022/01/13 10:25:43;;;;;;;57.90;26.70;;;;;;;0.71;77.93;100238.66;108231;1274;22653;-73
2022/01/13 10:28:21;;;;;;;54.10;26.70;;;;;;;0.77;77.82;100236.27;108611;1274;22741;-71
2022/01/13 10:30:52;;;;;;;57.00;28.00;;;;;;;0.79;77.14;100231.48;108251;1274;22562;-73
2022/01/13 10:33:25;;;;;;;62.00;32.60;;;;;;;0.86;77.19;100231.98;108231;1274;23918;-72
2022/01/13 10:35:55;;;;;;;71.00;37.90;;;;;;;0.89;77.65;100229.23;108239;1274;22572;-72
2022/01/13 10:38:22;;;;;;;67.60;32.70;;;;;;;0.93;78.11;100227.17;108239;1274;22564;-72
2022/01/13 10:40:50;;;;;;;58.80;29.00;;;;;;;0.96;77.98;100220.81;108249;1274;23379;-74
2022/01/13 10:43:26;;;;;;;57.30;29.30;;;;;;;1.03;77.63;100219.27;108254;1274;22573;-74
2022/01/13 10:45:56;;;;;;;75.10;37.20;;;;;;;1.06;77.37;100212.41;108206;1274;25426;-75
2022/01/13 10:48:24;;;;;;;62.90;30.20;;;;;;;1.06;76.95;100217.04;108212;1274;25254;-77
2022/01/13 10:50:57;;;;;;;54.70;25.80;;;;;;;1.12;76.73;100223.54;108203;1274;24234;-75
2022/01/13 10:53:25;;;;;;;;;;;;;;;1.09;76.60;100218.91;108237;1274;22605;-72
2022/01/13 10:55:59;;;;;;;65.40;29.10;;;;;;;1.09;76.56;100221.48;108247;1274;22560;-72
2022/01/13 10:58:37;;;;;;;60.80;29.50;;;;;;;1.12;76.85;100217.71;108223;1274;22571;-74
2022/01/13 11:01:06;;;;;;;58.50;28.10;;;;;;;1.17;76.53;100208.26;108198;1274;22527;-71
2022/01/13 11:03:39;;;;;;;55.90;27.30;;;;;;;1.21;76.48;100209.80;108281;1274;22554;-72
2022/01/13 11:06:09;;;;;;;51.00;23.20;;;;;;;1.26;76.46;100213.22;108259;1274;23065;-75
2022/01/13 11:08:41;;;;;;;55.90;26.40;;;;;;;1.28;76.88;100208.58;108246;1274;22573;-72
2022/01/13 11:11:24;;;;;;;51.10;24.90;;;;;;;1.27;77.08;100203.25;108226;1274;22573;-71
2022/01/13 11:13:54;;;;;;;56.70;25.40;;;;;;;1.26;76.79;100197.94;108229;1272;25332;-71
2022/01/13 11:16:22;;;;;;;50.00;23.30;;;;;;;1.25;76.15;100195.38;108218;1274;24392;-71
2022/01/13 11:18:50;;;;;;;52.30;23.50;;;;;;;1.25;75.99;100195.89;108254;1274;22711;-72
2022/01/13 11:21:17;;;;;;;55.20;26.90;;;;;;;1.26;76.10;100191.59;108204;1274;22573;-72
2022/01/13 11:23:48;;;;;;;52.70;25.10;;;;;;;1.28;75.91;100188.14;108222;1274;22555;-72
2022/01/13 11:26:16;;;;;;;43.50;22.80;;;;;;;1.29;75.76;100190.90;108202;1274;22564;-73
2022/01/13 11:28:44;;;;;;;45.80;22.90;;;;;;;1.28;75.80;100193.81;108213;1274;22557;-73
2022/01/13 11:31:11;;;;;;;52.80;23.70;;;;;;;1.33;75.90;100188.83;108287;1273;23578;-73